createdAt,value
2022-11-05T00:00:20.275Z,8.53
2022-11-05T00:03:05.167Z,8.53
2022-11-05T00:05:50.488Z,8.54
2022-11-05T00:08:35.571Z,8.52
2022-11-05T00:11:02.087Z,8.50
2022-11-05T00:13:48.218Z,8.55
2022-11-05T00:16:33.195Z,8.55
2022-11-05T00:19:09.063Z,8.53
2022-11-05T00:21:56.541Z,8.49
2022-11-05T00:24:42.313Z,8.48
2022-11-05T00:27:09.491Z,8.44
2022-11-05T00:29:36.246Z,8.42
2022-11-05T00:32:02.814Z,8.41
2022-11-05T00:34:29.513Z,8.43
2022-11-05T00:36:56.100Z,8.42
2022-11-05T00:39:22.577Z,8.48
2022-11-05T00:42:08.930Z,8.45
2022-11-05T00:44:54.101Z,8.44
2022-11-05T00:47:39.174Z,8.41
2022-11-05T00:50:05.783Z,8.43
2022-11-05T00:53:01.163Z,8.37
2022-11-05T00:55:39.222Z,8.35
2022-11-05T00:58:11.617Z,8.33
2022-11-05T01:00:39.910Z,8.32
2022-11-05T01:03:09.287Z,8.33
2022-11-05T01:05:39.760Z,8.29
2022-11-05T01:08:06.678Z,8.29
2022-11-05T01:10:33.196Z,8.28
2022-11-05T01:12:59.710Z,8.26
2022-11-05T01:15:26.478Z,8.20
2022-11-05T01:17:52.871Z,8.16
2022-11-05T01:20:19.404Z,8.17
2022-11-05T01:22:45.837Z,8.21
2022-11-05T01:25:12.387Z,8.17
2022-11-05T01:27:39.480Z,8.26
2022-11-05T01:30:07.579Z,8.19
2022-11-05T01:32:35.180Z,8.18
2022-11-05T01:35:01.932Z,8.22
2022-11-05T01:37:29.215Z,8.21
2022-11-05T01:39:55.665Z,8.20
2022-11-05T01:42:24.350Z,8.24
2022-11-05T01:45:09.870Z,8.24
2022-11-05T01:47:36.346Z,8.24
2022-11-05T01:50:07.203Z,8.28
2022-11-05T01:52:35.383Z,8.28
2022-11-05T01:55:02.923Z,8.30
2022-11-05T01:57:29.671Z,8.27
2022-11-05T01:59:58.767Z,8.27
2022-11-05T02:02:25.864Z,8.21
2022-11-05T02:04:55.738Z,8.17
2022-11-05T02:07:23.158Z,8.19
2022-11-05T02:09:57.135Z,8.20
2022-11-05T02:12:24.072Z,8.21
2022-11-05T02:14:50.683Z,8.13
2022-11-05T02:17:51.386Z,8.11
2022-11-05T02:20:38.920Z,8.10
2022-11-05T02:23:39.030Z,8.17
2022-11-05T02:26:43.070Z,8.12
2022-11-05T02:29:15.079Z,8.03
2022-11-05T02:32:02.277Z,7.99
2022-11-05T02:34:50.272Z,7.95
2022-11-05T02:37:38.317Z,7.89
2022-11-05T02:40:16.815Z,7.88
2022-11-05T02:42:58.149Z,7.83
2022-11-05T02:46:03.219Z,7.80
2022-11-05T02:48:38.787Z,7.80
2022-11-05T02:51:24.461Z,7.73
2022-11-05T02:53:56.583Z,7.71
2022-11-05T02:56:26.946Z,7.70
2022-11-05T02:58:53.379Z,7.68
2022-11-05T03:01:20.071Z,7.65
2022-11-05T03:04:04.759Z,7.61
2022-11-05T03:07:02.165Z,7.64
2022-11-05T03:09:47.537Z,7.63
2022-11-05T03:12:39.902Z,7.57
2022-11-05T03:15:13.652Z,7.51
2022-11-05T03:18:02.169Z,7.48
2022-11-05T03:20:36.082Z,7.42
2022-11-05T03:23:16.187Z,7.43
2022-11-05T03:25:47.264Z,7.46
2022-11-05T03:28:14.694Z,7.42
2022-11-05T03:30:41.878Z,7.40
2022-11-05T03:33:13.524Z,7.46
2022-11-05T03:35:45.243Z,7.44
2022-11-05T03:38:15.346Z,7.41
2022-11-05T03:40:42.889Z,7.37
2022-11-05T03:43:09.905Z,7.33
2022-11-05T03:46:04.069Z,7.28
2022-11-05T03:48:31.651Z,7.27
2022-11-05T03:51:17.520Z,7.31
2022-11-05T03:53:49.695Z,7.21
2022-11-05T03:56:38.849Z,7.23
2022-11-05T03:59:06.610Z,7.19
2022-11-05T04:01:33.623Z,7.24
2022-11-05T04:04:00.175Z,7.19
2022-11-05T04:06:45.396Z,7.26
2022-11-05T04:09:30.318Z,7.22
2022-11-05T04:12:15.345Z,7.22
2022-11-05T04:14:42.126Z,7.16
2022-11-05T04:17:11.474Z,7.19
2022-11-05T04:20:03.481Z,7.17
2022-11-05T04:22:52.856Z,7.24
2022-11-05T04:25:20.161Z,7.27
2022-11-05T04:27:47.020Z,7.38
2022-11-05T04:30:20.683Z,7.35
2022-11-05T04:33:11.298Z,7.40
2022-11-05T04:35:43.424Z,7.46
2022-11-05T04:38:12.383Z,7.46
2022-11-05T04:40:38.972Z,7.47
2022-11-05T04:43:08.222Z,7.42
2022-11-05T04:45:37.233Z,7.37
2022-11-05T04:48:03.929Z,7.29
2022-11-05T04:50:30.440Z,7.25
2022-11-05T04:52:57.231Z,7.29
2022-11-05T04:55:23.769Z,7.24
2022-11-05T04:57:51.272Z,7.32
2022-11-05T05:00:18.728Z,7.28
2022-11-05T05:02:45.713Z,7.31
2022-11-05T05:05:12.661Z,7.38
2022-11-05T05:07:39.246Z,7.27
2022-11-05T05:10:06.679Z,7.11
2022-11-05T05:12:34.018Z,7.02
2022-11-05T05:15:00.801Z,6.90
2022-11-05T05:17:27.957Z,6.82
2022-11-05T05:20:12.873Z,6.74
2022-11-05T05:22:39.379Z,6.74
2022-11-05T05:25:05.871Z,6.74
2022-11-05T05:27:32.270Z,6.69
2022-11-05T05:29:59.598Z,6.71
2022-11-05T05:32:26.649Z,6.66
2022-11-05T05:34:53.156Z,6.70
2022-11-05T05:37:20.219Z,6.76
2022-11-05T05:39:47.891Z,6.73
2022-11-05T05:42:14.572Z,6.65
2022-11-05T05:44:41.273Z,6.61
2022-11-05T05:47:07.726Z,6.61
2022-11-05T05:49:34.168Z,6.72
2022-11-05T05:52:00.721Z,6.67
2022-11-05T05:54:33.427Z,6.62
2022-11-05T05:57:01.651Z,6.64
2022-11-05T05:59:28.635Z,6.62
2022-11-05T06:01:55.304Z,6.61
2022-11-05T06:04:21.994Z,6.62
2022-11-05T06:06:48.450Z,6.61
2022-11-05T06:09:15.022Z,6.57
2022-11-05T06:11:41.562Z,6.66
2022-11-05T06:14:12.371Z,6.64
2022-11-05T06:16:39.603Z,6.63
2022-11-05T06:19:06.798Z,6.67
2022-11-05T06:21:33.461Z,6.64
2022-11-05T06:24:00.300Z,6.63
2022-11-05T06:26:26.843Z,6.58
2022-11-05T06:28:53.255Z,6.55
2022-11-05T06:31:19.696Z,6.56
2022-11-05T06:33:47.262Z,6.50
2022-11-05T06:36:18.325Z,6.48
2022-11-05T06:38:44.796Z,6.50
2022-11-05T06:41:11.301Z,6.52
2022-11-05T06:43:38.060Z,6.53
2022-11-05T06:46:04.790Z,6.55
2022-11-05T06:48:31.321Z,6.51
2022-11-05T06:50:57.854Z,6.52
2022-11-05T06:53:24.564Z,6.57
2022-11-05T06:55:51.286Z,6.54
2022-11-05T06:58:17.823Z,6.71
2022-11-05T07:00:44.372Z,6.72
2022-11-05T07:03:12.552Z,6.69
2022-11-05T07:05:42.734Z,6.75
2022-11-05T07:08:09.226Z,6.76
2022-11-05T07:10:35.796Z,6.79
2022-11-05T07:13:07.553Z,6.93
2022-11-05T07:15:34.799Z,6.86
2022-11-05T07:18:01.970Z,6.82
2022-11-05T07:20:33.481Z,6.81
2022-11-05T07:23:05.476Z,6.86
2022-11-05T07:25:32.787Z,6.94
2022-11-05T07:27:59.683Z,7.02
2022-11-05T07:30:26.642Z,6.97
2022-11-05T07:32:53.360Z,7.00
2022-11-05T07:35:19.943Z,7.00
2022-11-05T07:37:50.901Z,7.10
2022-11-05T07:40:19.355Z,7.15
2022-11-05T07:42:47.813Z,7.17
2022-11-05T07:45:14.742Z,7.29
2022-11-05T07:47:56.005Z,7.24
2022-11-05T07:50:24.719Z,7.28
2022-11-05T07:52:51.598Z,7.33
2022-11-05T07:55:19.415Z,7.42
2022-11-05T07:57:47.661Z,7.44
2022-11-05T08:00:21.154Z,7.41
2022-11-05T08:03:26.184Z,7.50
2022-11-05T08:05:52.806Z,7.54
2022-11-05T08:08:20.460Z,7.49
2022-11-05T08:10:47.513Z,7.47
2022-11-05T08:13:14.427Z,7.54
2022-11-05T08:15:42.874Z,7.61
2022-11-05T08:18:14.731Z,7.56
2022-11-05T08:20:42.512Z,7.55
2022-11-05T08:23:09.572Z,7.72
2022-11-05T08:25:36.411Z,7.65
2022-11-05T08:28:08.176Z,7.68
2022-11-05T08:30:35.104Z,7.57
2022-11-05T08:33:04.622Z,7.58
2022-11-05T08:35:31.377Z,7.59
2022-11-05T08:37:59.034Z,7.50
2022-11-05T08:40:26.427Z,7.76
2022-11-05T08:42:53.199Z,7.82
2022-11-05T08:45:19.778Z,7.84
2022-11-05T08:47:46.230Z,7.87
2022-11-05T08:50:12.820Z,7.86
2022-11-05T08:52:42.348Z,7.80
2022-11-05T08:55:09.340Z,7.79
2022-11-05T08:57:35.955Z,7.82
2022-11-05T09:00:02.468Z,7.85
2022-11-05T09:02:29.374Z,7.92
2022-11-05T09:04:55.967Z,8.00
2022-11-05T09:07:22.949Z,7.97
2022-11-05T09:09:49.502Z,8.17
2022-11-05T09:12:16.089Z,8.23
2022-11-05T09:14:42.655Z,8.13
2022-11-05T09:17:20.152Z,8.20
2022-11-05T09:19:46.851Z,8.29
2022-11-05T09:22:13.885Z,8.27
2022-11-05T09:24:41.299Z,8.25
2022-11-05T09:27:13.161Z,8.19
2022-11-05T09:29:40.706Z,8.06
2022-11-05T09:32:07.737Z,8.06
2022-11-05T09:34:34.627Z,8.16
2022-11-05T09:37:01.359Z,8.26
2022-11-05T09:39:27.973Z,8.38
2022-11-05T09:41:57.512Z,8.39
2022-11-05T09:44:29.834Z,8.38
2022-11-05T09:47:02.401Z,8.51
2022-11-05T09:49:35.544Z,8.48
2022-11-05T09:52:02.523Z,8.45
2022-11-05T09:54:33.731Z,8.46
2022-11-05T09:57:02.662Z,8.60
2022-11-05T09:59:41.794Z,8.54
2022-11-05T10:02:33.446Z,8.60
2022-11-05T10:05:09.745Z,8.73
2022-11-05T10:07:43.521Z,8.77
2022-11-05T10:10:41.032Z,8.78
2022-11-05T10:13:20.703Z,8.78
2022-11-05T10:15:54.709Z,8.68
2022-11-05T10:18:32.233Z,8.59
2022-11-05T10:20:59.167Z,8.53
2022-11-05T10:23:26.414Z,8.59
2022-11-05T10:26:02.839Z,8.55
2022-11-05T10:28:32.298Z,8.53
2022-11-05T10:31:01.323Z,8.59
2022-11-05T10:33:53.350Z,8.62
2022-11-05T10:36:25.112Z,8.67
2022-11-05T10:38:52.108Z,8.66
2022-11-05T10:41:32.012Z,8.56
2022-11-05T10:44:19.667Z,8.66
2022-11-05T10:46:54.048Z,8.58
2022-11-05T10:49:34.166Z,8.59
2022-11-05T10:52:20.413Z,8.62
2022-11-05T10:54:47.355Z,8.68
2022-11-05T10:57:29.372Z,8.81
2022-11-05T11:00:18.004Z,8.83
2022-11-05T11:02:50.861Z,8.66
2022-11-05T11:05:26.726Z,8.73
2022-11-05T11:07:55.579Z,8.69
2022-11-05T11:10:22.543Z,8.73
2022-11-05T11:12:51.051Z,8.78
2022-11-05T11:15:20.561Z,8.75
2022-11-05T11:17:47.187Z,8.78
2022-11-05T11:20:16.592Z,8.76
2022-11-05T11:23:05.390Z,8.76
2022-11-05T11:25:50.556Z,8.71
2022-11-05T11:28:21.505Z,8.77
2022-11-05T11:30:55.708Z,8.67
2022-11-05T11:33:25.667Z,8.73
2022-11-05T11:35:52.182Z,8.79
2022-11-05T11:38:18.762Z,8.74
2022-11-05T11:40:45.465Z,8.80
2022-11-05T11:43:26.281Z,8.78
2022-11-05T11:45:54.808Z,8.78
2022-11-05T11:48:32.584Z,8.77
2022-11-05T11:50:59.401Z,8.78
2022-11-05T11:53:34.341Z,8.71
2022-11-05T11:56:18.518Z,8.69
2022-11-05T11:58:47.912Z,8.69
2022-11-05T12:01:29.193Z,8.73
2022-11-05T12:04:22.855Z,8.74
2022-11-05T12:07:11.283Z,8.73
2022-11-05T12:09:56.167Z,8.71
2022-11-05T12:12:31.197Z,8.75
2022-11-05T12:15:34.426Z,8.79
2022-11-05T12:18:03.932Z,8.80
2022-11-05T12:20:40.869Z,8.66
2022-11-05T12:23:17.625Z,8.74
2022-11-05T12:26:05.766Z,8.82
2022-11-05T12:29:17.127Z,8.90
2022-11-05T12:32:15.266Z,8.86
2022-11-05T12:35:16.837Z,8.91
2022-11-05T12:38:15.060Z,8.98
2022-11-05T12:41:04.622Z,8.95
2022-11-05T12:43:40.948Z,8.90
2022-11-05T12:46:14.922Z,8.80
2022-11-05T12:49:20.768Z,8.79
2022-11-05T12:51:54.825Z,8.96
2022-11-05T12:54:37.658Z,9.05
2022-11-05T12:57:04.486Z,9.02
2022-11-05T12:59:34.879Z,9.01
2022-11-05T13:02:18.712Z,9.04
2022-11-05T13:04:58.732Z,8.87
2022-11-05T13:07:30.745Z,8.78
2022-11-05T13:10:04.217Z,8.66
2022-11-05T13:12:33.697Z,8.57
2022-11-05T13:15:15.619Z,8.59
2022-11-05T13:17:51.455Z,8.79
2022-11-05T13:20:21.676Z,8.84
2022-11-05T13:22:52.774Z,8.73
2022-11-05T13:25:25.568Z,8.68
2022-11-05T13:28:16.894Z,8.72
2022-11-05T13:30:48.476Z,8.75
2022-11-05T13:33:19.975Z,8.76
2022-11-05T13:36:27.528Z,8.86
2022-11-05T13:39:00.048Z,8.92
2022-11-05T13:41:35.009Z,8.94
2022-11-05T13:44:26.137Z,8.85
2022-11-05T13:47:22.613Z,8.88
2022-11-05T13:49:59.253Z,8.97
2022-11-05T13:52:54.773Z,8.90
2022-11-05T13:55:31.382Z,8.99
2022-11-05T13:58:11.705Z,8.87
2022-11-05T14:00:44.747Z,8.81
2022-11-05T14:03:18.221Z,8.57
2022-11-05T14:05:53.151Z,8.62
2022-11-05T14:08:23.783Z,8.69
2022-11-05T14:11:05.387Z,8.76
2022-11-05T14:13:42.793Z,8.69
2022-11-05T14:16:24.309Z,8.59
2022-11-05T14:19:18.352Z,8.65
2022-11-05T14:21:50.008Z,8.60
2022-11-05T14:24:22.299Z,8.64
2022-11-05T14:27:01.158Z,8.65
2022-11-05T14:29:44.765Z,8.74
2022-11-05T14:32:17.064Z,8.74
2022-11-05T14:35:04.207Z,8.68
2022-11-05T14:37:36.986Z,8.70
2022-11-05T14:40:32.686Z,8.64
2022-11-05T14:43:02.029Z,8.74
2022-11-05T14:45:56.033Z,8.73
2022-11-05T14:48:47.784Z,8.76
2022-11-05T14:51:30.604Z,8.69
2022-11-05T14:54:21.578Z,8.75
2022-11-05T14:56:56.271Z,8.60
2022-11-05T14:59:31.393Z,8.63
2022-11-05T15:02:02.450Z,8.60
2022-11-05T15:04:33.333Z,8.62
2022-11-05T15:07:02.939Z,8.50
2022-11-05T15:09:34.262Z,8.51
2022-11-05T15:12:05.453Z,8.57
2022-11-05T15:14:40.902Z,8.57
2022-11-05T15:17:17.807Z,8.58
2022-11-05T15:19:44.675Z,8.55
2022-11-05T15:22:27.355Z,8.55
2022-11-05T15:24:55.333Z,8.59
2022-11-05T15:27:41.894Z,8.48
2022-11-05T15:30:18.713Z,8.41
2022-11-05T15:32:45.226Z,8.48
2022-11-05T15:35:23.464Z,8.48
2022-11-05T15:37:55.886Z,8.47
2022-11-05T15:40:27.490Z,8.44
2022-11-05T15:43:17.577Z,8.42
2022-11-05T15:45:57.852Z,8.40
2022-11-05T15:48:24.444Z,8.38
2022-11-05T15:50:51.296Z,8.38
2022-11-05T15:54:08.255Z,8.32
2022-11-05T15:56:30.081Z,8.35
2022-11-05T15:59:05.472Z,8.37
2022-11-05T16:01:35.678Z,8.36
2022-11-05T16:04:19.862Z,8.37
2022-11-05T16:06:48.469Z,8.40
2022-11-05T16:09:26.298Z,8.40
2022-11-05T16:12:31.959Z,8.37
2022-11-05T16:15:09.257Z,8.39
2022-11-05T16:17:47.801Z,8.51
2022-11-05T16:20:19.395Z,8.34
2022-11-05T16:22:51.743Z,8.45
2022-11-05T16:25:29.270Z,8.43
2022-11-05T16:27:57.526Z,8.55
2022-11-05T16:30:24.782Z,8.55
2022-11-05T16:32:51.571Z,8.61
2022-11-05T16:35:20.868Z,8.61
2022-11-05T16:37:51.858Z,8.55
2022-11-05T16:40:24.324Z,8.55
2022-11-05T16:42:52.389Z,8.63
2022-11-05T16:45:21.157Z,8.61
2022-11-05T16:47:47.859Z,8.66
2022-11-05T16:50:30.810Z,8.66
2022-11-05T16:52:57.575Z,8.69
2022-11-05T16:55:24.044Z,8.65
2022-11-05T16:57:55.043Z,8.63
2022-11-05T17:00:22.401Z,8.54
2022-11-05T17:02:49.533Z,8.54
2022-11-05T17:05:19.298Z,8.60
2022-11-05T17:07:46.257Z,8.58
2022-11-05T17:10:12.994Z,8.69
2022-11-05T17:12:39.591Z,8.63
2022-11-05T17:15:17.194Z,8.47
2022-11-05T17:17:43.802Z,8.42
2022-11-05T17:20:40.344Z,8.41
2022-11-05T17:23:15.855Z,8.50
2022-11-05T17:25:46.101Z,8.53
2022-11-05T17:28:13.815Z,8.56
2022-11-05T17:30:41.891Z,8.62
2022-11-05T17:33:12.708Z,8.62
2022-11-05T17:35:40.182Z,8.55
2022-11-05T17:38:06.628Z,8.48
2022-11-05T17:40:34.251Z,8.60
2022-11-05T17:43:00.973Z,8.70
2022-11-05T17:45:27.690Z,8.60
2022-11-05T17:47:54.280Z,8.67
2022-11-05T17:50:21.047Z,8.68
2022-11-05T17:52:47.551Z,8.71
2022-11-05T17:55:17.443Z,8.75
2022-11-05T17:57:45.517Z,8.66
2022-11-05T18:00:12.780Z,8.70
2022-11-05T18:02:39.398Z,8.65
2022-11-05T18:05:06.604Z,8.60
2022-11-05T18:07:33.003Z,8.57
2022-11-05T18:09:59.481Z,8.57
2022-11-05T18:12:25.918Z,8.54
2022-11-05T18:14:52.428Z,8.51
2022-11-05T18:17:18.876Z,8.60
2022-11-05T18:19:45.416Z,8.60
2022-11-05T18:22:11.843Z,8.52
2022-11-05T18:24:38.519Z,8.51
2022-11-05T18:27:05.041Z,8.47
2022-11-05T18:29:31.649Z,8.48
2022-11-05T18:31:58.052Z,8.47
2022-11-05T18:34:24.679Z,8.35
2022-11-05T18:36:56.166Z,8.30
2022-11-05T18:39:23.081Z,8.29
2022-11-05T18:41:49.610Z,8.32
2022-11-05T18:44:16.740Z,8.35
2022-11-05T18:46:57.795Z,8.30
2022-11-05T18:49:24.994Z,8.31
2022-11-05T18:51:51.672Z,8.36
2022-11-05T18:54:18.091Z,8.20
2022-11-05T18:56:47.316Z,8.25
2022-11-05T18:59:36.018Z,8.32
2022-11-05T19:02:03.109Z,8.23
2022-11-05T19:04:30.591Z,8.18
2022-11-05T19:07:00.213Z,8.19
2022-11-05T19:09:30.939Z,8.23
2022-11-05T19:11:57.488Z,8.23
2022-11-05T19:14:24.015Z,8.22
2022-11-05T19:16:50.504Z,8.33
2022-11-05T19:19:16.951Z,8.17
2022-11-05T19:21:43.377Z,8.20
2022-11-05T19:24:09.978Z,8.17
2022-11-05T19:26:36.658Z,8.22
2022-11-05T19:29:04.055Z,8.21
2022-11-05T19:31:31.473Z,8.21
2022-11-05T19:33:58.274Z,8.15
2022-11-05T19:36:25.341Z,8.28
2022-11-05T19:39:00.149Z,8.31
2022-11-05T19:41:27.694Z,8.20
2022-11-05T19:43:55.126Z,8.26
2022-11-05T19:46:23.467Z,8.34
2022-11-05T19:48:50.303Z,8.35
2022-11-05T19:51:20.073Z,8.41
2022-11-05T19:53:46.708Z,8.33
2022-11-05T19:56:15.606Z,8.29
2022-11-05T19:58:42.425Z,8.28
2022-11-05T20:01:10.321Z,8.39
2022-11-05T20:03:37.767Z,8.27
2022-11-05T20:06:09.996Z,8.23
2022-11-05T20:08:47.780Z,8.22
2022-11-05T20:11:23.071Z,8.26
2022-11-05T20:13:49.599Z,8.20
2022-11-05T20:16:27.730Z,8.22
2022-11-05T20:18:55.139Z,8.32
2022-11-05T20:21:21.568Z,8.28
2022-11-05T20:23:48.208Z,8.36
2022-11-05T20:26:15.442Z,8.32
2022-11-05T20:28:42.830Z,8.21
2022-11-05T20:31:14.943Z,8.24
2022-11-05T20:33:42.520Z,8.30
2022-11-05T20:36:17.772Z,8.29
2022-11-05T20:38:50.857Z,8.37
2022-11-05T20:41:18.018Z,8.38
2022-11-05T20:43:45.004Z,8.29
2022-11-05T20:46:13.707Z,8.30
2022-11-05T20:48:40.615Z,8.27
2022-11-05T20:51:15.467Z,8.35
2022-11-05T20:53:42.000Z,8.24
2022-11-05T20:56:09.307Z,8.18
2022-11-05T20:58:38.593Z,8.10
2022-11-05T21:01:05.713Z,8.22
2022-11-05T21:03:32.409Z,8.28
2022-11-05T21:06:01.438Z,8.16
2022-11-05T21:08:28.812Z,8.26
2022-11-05T21:10:56.070Z,8.32
2022-11-05T21:13:23.318Z,8.37
2022-11-05T21:15:51.620Z,8.24
2022-11-05T21:18:19.081Z,8.25
2022-11-05T21:20:46.531Z,8.28
2022-11-05T21:23:13.651Z,8.32
2022-11-05T21:25:41.078Z,8.34
2022-11-05T21:28:08.629Z,8.33
2022-11-05T21:30:37.354Z,8.31
2022-11-05T21:33:05.279Z,8.29
2022-11-05T21:35:31.989Z,8.31
2022-11-05T21:37:58.440Z,8.20
2022-11-05T21:40:24.892Z,8.21
2022-11-05T21:42:51.362Z,8.20
2022-11-05T21:45:17.793Z,8.18
2022-11-05T21:47:44.433Z,8.23
2022-11-05T21:50:11.235Z,8.14
2022-11-05T21:53:09.829Z,8.12
2022-11-05T21:55:59.051Z,8.17
2022-11-05T21:58:44.277Z,8.23
2022-11-05T22:01:10.712Z,8.13
2022-11-05T22:03:37.171Z,8.23
2022-11-05T22:06:03.714Z,8.24
2022-11-05T22:08:30.114Z,8.30
2022-11-05T22:10:56.548Z,8.31
2022-11-05T22:13:22.962Z,8.22
2022-11-05T22:15:56.384Z,8.25
2022-11-05T22:18:22.825Z,8.25
2022-11-05T22:20:49.252Z,8.12
2022-11-05T22:23:15.710Z,8.12
2022-11-05T22:25:42.328Z,8.13
2022-11-05T22:28:08.856Z,8.12
2022-11-05T22:30:36.583Z,7.98
2022-11-05T22:33:03.086Z,8.06
2022-11-05T22:35:29.546Z,8.01
2022-11-05T22:37:55.964Z,8.03
2022-11-05T22:40:24.087Z,7.90
2022-11-05T22:42:50.794Z,7.91
2022-11-05T22:45:17.387Z,7.92
2022-11-05T22:47:43.954Z,8.01
2022-11-05T22:50:10.578Z,7.96
2022-11-05T22:52:37.053Z,7.89
2022-11-05T22:55:06.085Z,7.94
2022-11-05T22:57:32.582Z,7.93
2022-11-05T22:59:59.028Z,7.94
2022-11-05T23:02:25.603Z,7.93
2022-11-05T23:04:52.234Z,7.93
2022-11-05T23:07:37.293Z,7.93
2022-11-05T23:10:22.392Z,7.95
2022-11-05T23:12:48.943Z,8.02
2022-11-05T23:15:35.663Z,8.00
2022-11-05T23:18:20.788Z,7.88
2022-11-05T23:21:05.887Z,7.79
2022-11-05T23:23:50.739Z,7.69
2022-11-05T23:26:35.874Z,7.66
2022-11-05T23:29:02.318Z,7.71
2022-11-05T23:31:47.734Z,7.72
2022-11-05T23:34:14.200Z,7.69
2022-11-05T23:36:59.547Z,7.65
2022-11-05T23:39:26.075Z,7.50
2022-11-05T23:42:11.385Z,7.58
2022-11-05T23:44:56.234Z,7.54
2022-11-05T23:47:41.100Z,7.43
2022-11-05T23:50:07.879Z,7.38
2022-11-05T23:52:34.316Z,7.33
2022-11-05T23:55:00.752Z,7.37
2022-11-05T23:57:27.763Z,7.47
2022-11-05T23:59:54.213Z,7.52
